Time;durP1;ratioP1;P1;durP2;ratioP2;P2;SDS_P1;SDS_P2;PMS_P1;PMS_P2;Temp;Humidity;BMP_temperature;BMP_pressure;BME280_temperature;BME280_humidity;BME280_pressure;Samples;Min_cycle;Max_cycle;Signal;HPM_P1;HPM_P2
2023/06/14 00:01:38;;;;;;;4.60;4.40;;;23.50;43.90;;;;;;5040168;28;20222;-79
2023/06/14 00:04:04;;;;;;;4.63;4.43;;;23.50;43.90;;;;;;5036755;28;20225;-79
2023/06/14 00:06:30;;;;;;;4.50;4.30;;;23.40;43.80;;;;;;5036471;28;20217;-78
2023/06/14 00:08:56;;;;;;;4.00;3.80;;;23.40;43.80;;;;;;5038176;28;20455;-79
2023/06/14 00:11:21;;;;;;;4.27;3.97;;;23.50;43.90;;;;;;5032351;28;20218;-78
2023/06/14 00:13:49;;;;;;;4.47;4.27;;;23.50;43.80;;;;;;5034901;28;20288;-78
2023/06/14 00:16:16;;;;;;;4.50;4.30;;;23.40;43.70;;;;;;5036048;28;21576;-78
2023/06/14 00:18:42;;;;;;;4.83;4.63;;;23.40;43.70;;;;;;5036427;28;20455;-78
2023/06/14 00:21:08;;;;;;;5.10;4.80;;;23.50;43.60;;;;;;5036480;28;21552;-78
2023/06/14 00:23:34;;;;;;;4.70;4.40;;;23.50;43.80;;;;;;5041549;28;20289;-78
2023/06/14 00:25:59;;;;;;;4.67;4.40;;;23.50;43.80;;;;;;5032430;28;20489;-78
2023/06/14 00:28:25;;;;;;;4.87;4.60;;;23.50;43.70;;;;;;5038783;28;20229;-78
2023/06/14 00:30:50;;;;;;;4.70;4.50;;;23.50;43.80;;;;;;5036825;28;20222;-78
2023/06/14 00:33:16;;;;;;;5.00;4.67;;;23.40;43.60;;;;;;5037191;28;20221;-78
2023/06/14 00:35:41;;;;;;;4.93;4.63;;;23.40;43.70;;;;;;5034824;28;20209;-78
2023/06/14 00:38:07;;;;;;;4.77;4.57;;;23.50;43.70;;;;;;5035961;28;20555;-77
2023/06/14 00:40:32;;;;;;;5.13;4.93;;;23.40;43.70;;;;;;5039395;28;20241;-78
2023/06/14 00:42:58;;;;;;;4.60;4.40;;;23.40;43.70;;;;;;5031972;28;20238;-78
2023/06/14 00:45:23;;;;;;;4.43;4.23;;;23.40;43.60;;;;;;5035266;28;20593;-78
2023/06/14 00:47:52;;;;;;;4.43;4.23;;;23.40;43.60;;;;;;5034884;28;20210;-78
2023/06/14 00:50:19;;;;;;;4.10;3.90;;;23.40;43.60;;;;;;5034166;28;20304;-78
2023/06/14 00:52:44;;;;;;;4.47;4.27;;;23.40;43.60;;;;;;5036310;28;20447;-78
2023/06/14 00:55:10;;;;;;;4.63;4.33;;;23.40;43.50;;;;;;5032520;28;20819;-78
2023/06/14 00:57:37;;;;;;;4.37;4.17;;;23.40;43.50;;;;;;5036470;28;20672;-78
2023/06/14 01:00:04;;;;;;;5.00;4.80;;;23.40;43.50;;;;;;5035821;28;20249;-78
2023/06/14 01:02:30;;;;;;;4.50;4.30;;;23.40;43.60;;;;;;5035771;28;20467;-78
2023/06/14 01:04:56;;;;;;;4.97;4.77;;;23.40;43.50;;;;;;5035307;28;20500;-78
2023/06/14 01:07:41;;;;;;;4.83;4.63;;;23.40;43.50;;;;;;5029889;28;20228;-78
2023/06/14 01:10:12;;;;;;;4.30;4.10;;;23.40;43.50;;;;;;5037050;28;20455;-76
2023/06/14 01:12:48;;;;;;;4.57;4.37;;;23.40;43.50;;;;;;5031186;28;21623;-77
2023/06/14 01:15:15;;;;;;;4.60;4.40;;;23.40;43.50;;;;;;5036082;28;20496;-77
2023/06/14 01:17:43;;;;;;;4.33;4.13;;;23.40;43.50;;;;;;5033909;28;20811;-78
2023/06/14 01:20:14;;;;;;;4.33;4.13;;;23.40;43.50;;;;;;5032706;28;20474;-77
2023/06/14 01:22:50;;;;;;;4.87;4.57;;;23.40;43.40;;;;;;5021962;28;20497;-77
2023/06/14 01:25:16;;;;;;;4.40;4.20;;;23.40;43.40;;;;;;5030973;28;20495;-77
2023/06/14 01:27:42;;;;;;;4.10;3.90;;;23.40;43.30;;;;;;5034481;28;20552;-77
2023/06/14 01:30:09;;;;;;;4.43;4.23;;;23.40;43.30;;;;;;5036221;28;20220;-77
2023/06/14 01:32:36;;;;;;;5.00;4.80;;;23.40;43.30;;;;;;5034042;28;21060;-77
2023/06/14 01:35:03;;;;;;;4.77;4.57;;;23.40;43.40;;;;;;5031444;28;20458;-77
2023/06/14 01:37:30;;;;;;;5.30;5.00;;;23.40;43.30;;;;;;5035885;28;20577;-77
2023/06/14 01:39:56;;;;;;;4.60;4.40;;;23.40;43.30;;;;;;5032163;28;20509;-77
2023/06/14 01:42:23;;;;;;;4.77;4.57;;;23.40;43.30;;;;;;5049109;28;20494;-77
2023/06/14 01:44:50;;;;;;;4.63;4.33;;;23.40;43.30;;;;;;5027160;28;20493;-77
2023/06/14 01:47:16;;;;;;;4.40;4.20;;;23.40;43.30;;;;;;5035841;28;20545;-77
2023/06/14 01:49:42;;;;;;;4.83;4.53;;;23.40;43.20;;;;;;5034532;28;20452;-78
2023/06/14 01:52:09;;;;;;;4.90;4.47;;;23.40;43.20;;;;;;5030980;28;20218;-77
2023/06/14 01:54:37;;;;;;;4.70;4.50;;;23.40;43.30;;;;;;5035516;28;20737;-77
2023/06/14 01:57:03;;;;;;;4.70;4.50;;;23.40;43.20;;;;;;5032530;28;20542;-78
2023/06/14 01:59:31;;;;;;;4.80;4.60;;;23.40;43.20;;;;;;5037029;28;20447;-77
2023/06/14 02:01:56;;;;;;;4.20;4.00;;;23.40;43.20;;;;;;5031869;28;20249;-78
2023/06/14 02:04:22;;;;;;;4.50;4.30;;;23.40;43.20;;;;;;5035269;28;21805;-78
2023/06/14 02:06:47;;;;;;;4.67;4.47;;;23.40;43.20;;;;;;5032734;28;20210;-78
2023/06/14 02:09:13;;;;;;;5.13;4.83;;;23.40;43.20;;;;;;5037691;28;20222;-77
2023/06/14 02:11:38;;;;;;;4.80;4.60;;;23.40;43.20;;;;;;5036019;28;20254;-77
2023/06/14 02:14:04;;;;;;;4.60;4.40;;;23.40;43.20;;;;;;5034540;28;20317;-79
2023/06/14 02:16:30;;;;;;;4.60;4.40;;;23.40;43.10;;;;;;5036247;28;20228;-79
2023/06/14 02:18:56;;;;;;;5.43;5.00;;;23.40;43.10;;;;;;5019026;28;20261;-79
2023/06/14 02:21:22;;;;;;;4.33;4.13;;;23.40;43.10;;;;;;5020960;28;20206;-78
2023/06/14 02:23:47;;;;;;;5.37;4.97;;;23.40;43.10;;;;;;5035972;28;20455;-78
2023/06/14 02:26:13;;;;;;;4.67;4.47;;;23.30;43.00;;;;;;5033788;28;20720;-78
2023/06/14 02:28:38;;;;;;;4.63;4.43;;;23.40;43.10;;;;;;5038024;28;21238;-78
2023/06/14 02:31:04;;;;;;;4.80;4.50;;;23.40;43.10;;;;;;5036819;28;20214;-78
2023/06/14 02:33:30;;;;;;;4.27;4.07;;;23.40;43.00;;;;;;5033615;28;20218;-77
2023/06/14 02:35:56;;;;;;;4.37;4.17;;;23.30;43.00;;;;;;5033219;28;20659;-77
2023/06/14 02:38:21;;;;;;;4.80;4.60;;;23.30;43.00;;;;;;5035680;28;20724;-76
2023/06/14 02:40:47;;;;;;;4.33;4.13;;;23.30;43.00;;;;;;5031258;28;20459;-77
2023/06/14 02:43:12;;;;;;;4.57;4.37;;;23.40;43.00;;;;;;5033770;28;20591;-77
2023/06/14 02:45:38;;;;;;;4.90;4.70;;;23.30;43.00;;;;;;5034294;28;20222;-77
2023/06/14 02:48:04;;;;;;;4.60;4.40;;;23.30;43.00;;;;;;5036522;28;20238;-77
2023/06/14 02:50:30;;;;;;;4.60;4.40;;;23.30;42.90;;;;;;5031829;28;20222;-77
2023/06/14 02:52:56;;;;;;;5.27;4.97;;;23.40;43.00;;;;;;5034172;28;20215;-77
2023/06/14 02:55:22;;;;;;;5.23;4.93;;;23.30;43.00;;;;;;5033839;28;20823;-77
2023/06/14 02:57:48;;;;;;;4.77;4.47;;;23.30;42.90;;;;;;5034926;28;20474;-77
2023/06/14 03:00:14;;;;;;;4.70;4.50;;;23.30;42.90;;;;;;5034567;28;20226;-77
2023/06/14 03:02:39;;;;;;;4.83;4.63;;;23.30;42.90;;;;;;5034395;28;20214;-77
2023/06/14 03:05:07;;;;;;;4.50;4.30;;;23.30;42.80;;;;;;5040480;28;20218;-77
2023/06/14 03:07:32;;;;;;;4.37;4.17;;;23.30;43.00;;;;;;5036259;28;20229;-77
2023/06/14 03:09:58;;;;;;;4.80;4.50;;;23.30;42.90;;;;;;5036504;28;20450;-77
2023/06/14 03:12:23;;;;;;;4.97;4.67;;;23.30;42.80;;;;;;5028870;28;20828;-77
2023/06/14 03:14:50;;;;;;;4.70;4.50;;;23.30;42.80;;;;;;5029754;28;20225;-77
2023/06/14 03:17:17;;;;;;;5.87;5.30;;;23.30;42.80;;;;;;5038274;28;20237;-77
2023/06/14 03:19:42;;;;;;;5.10;4.90;;;23.30;42.90;;;;;;5036934;28;20565;-76
2023/06/14 03:22:08;;;;;;;5.37;5.00;;;23.30;42.90;;;;;;5036133;28;20877;-76
2023/06/14 03:24:36;;;;;;;4.90;4.60;;;23.30;42.90;;;;;;5038899;28;20233;-77
2023/06/14 03:27:02;;;;;;;4.20;4.00;;;23.30;42.80;;;;;;5037410;28;20226;-77
2023/06/14 03:29:28;;;;;;;6.03;5.53;;;23.30;42.90;;;;;;5039011;28;20470;-76
2023/06/14 03:32:01;;;;;;;5.30;5.00;;;23.30;42.10;;;;;;5037838;28;21028;-75
2023/06/14 03:34:27;;;;;;;5.03;4.73;;;23.30;42.10;;;;;;5040642;28;20308;-75
2023/06/14 03:36:53;;;;;;;5.10;4.80;;;23.30;41.30;;;;;;5049202;28;20452;-75
2023/06/14 03:39:19;;;;;;;5.03;4.83;;;23.30;40.80;;;;;;5033342;28;20253;-77
2023/06/14 03:41:44;;;;;;;6.10;5.60;;;23.30;40.20;;;;;;5036979;28;20219;-77
2023/06/14 03:44:10;;;;;;;4.60;4.40;;;23.30;39.70;;;;;;5035829;28;20976;-77
2023/06/14 03:46:35;;;;;;;5.50;4.90;;;23.40;39.50;;;;;;5039388;28;20222;-77
2023/06/14 03:49:02;;;;;;;4.90;4.60;;;23.40;39.40;;;;;;5034406;28;22806;-76
2023/06/14 03:51:28;;;;;;;5.10;4.80;;;23.40;39.40;;;;;;5033413;28;20701;-76
2023/06/14 03:53:55;;;;;;;4.83;4.63;;;23.30;39.20;;;;;;5037557;28;20507;-80
2023/06/14 03:56:21;;;;;;;6.13;4.70;;;23.40;39.20;;;;;;5037989;28;20462;-80
2023/06/14 03:58:47;;;;;;;5.00;4.70;;;23.30;39.20;;;;;;5037781;28;20487;-80
2023/06/14 04:01:12;;;;;;;5.60;5.30;;;23.40;39.40;;;;;;5034970;28;20213;-81
2023/06/14 04:03:40;;;;;;;5.23;4.93;;;23.40;39.50;;;;;;5038663;28;20226;-80
2023/06/14 04:06:06;;;;;;;4.87;4.57;;;23.40;39.70;;;;;;5035934;28;20222;-80
2023/06/14 04:08:31;;;;;;;5.17;4.87;;;23.40;39.60;;;;;;5029690;28;20485;-80
2023/06/14 04:10:57;;;;;;;5.10;4.80;;;23.50;39.70;;;;;;5037460;28;20435;-78
2023/06/14 04:13:23;;;;;;;5.10;4.83;;;23.50;39.60;;;;;;5041660;28;20230;-78
2023/06/14 04:15:48;;;;;;;5.10;4.90;;;23.50;39.60;;;;;;5036602;28;20260;-77
2023/06/14 04:18:14;;;;;;;5.37;5.07;;;23.50;39.50;;;;;;5037285;28;20227;-77
2023/06/14 04:20:40;;;;;;;5.07;4.77;;;23.50;39.30;;;;;;5035415;28;20233;-77
2023/06/14 04:23:21;;;;;;;6.00;5.70;;;23.50;39.20;;;;;;5040702;28;20596;-78
2023/06/14 04:25:49;;;;;;;5.90;5.40;;;23.50;39.10;;;;;;5031567;28;21055;-77
2023/06/14 04:28:18;;;;;;;5.20;4.90;;;23.50;38.70;;;;;;5049570;28;20463;-79
2023/06/14 04:30:44;;;;;;;5.10;4.87;;;23.50;38.80;;;;;;5031223;28;20463;-81
2023/06/14 04:33:10;;;;;;;5.37;5.07;;;23.50;39.00;;;;;;5038671;28;20471;-82
2023/06/14 04:35:37;;;;;;;5.50;5.30;;;23.50;39.10;;;;;;5036349;28;20444;-80
2023/06/14 04:38:04;;;;;;;5.37;5.07;;;23.50;39.20;;;;;;5037739;28;20666;-79
2023/06/14 04:40:31;;;;;;;5.40;5.10;;;23.50;39.30;;;;;;5036831;28;21044;-79
2023/06/14 04:42:57;;;;;;;4.93;4.73;;;23.50;39.50;;;;;;5037494;28;23228;-80
2023/06/14 04:45:23;;;;;;;5.50;5.10;;;23.50;39.50;;;;;;5039118;28;20459;-79
2023/06/14 04:47:50;;;;;;;4.33;4.13;;;23.50;39.60;;;;;;5034707;28;20497;-79
2023/06/14 04:50:16;;;;;;;5.23;5.03;;;23.50;39.70;;;;;;5048226;28;21225;-78
2023/06/14 04:52:42;;;;;;;5.10;4.87;;;23.40;39.60;;;;;;5039647;28;20459;-78
2023/06/14 04:55:08;;;;;;;5.30;5.00;;;23.40;39.60;;;;;;5036679;28;20443;-75
2023/06/14 04:57:34;;;;;;;5.70;4.80;;;23.40;40.20;;;;;;5037609;28;20242;-80
2023/06/14 05:00:05;;;;;;;5.10;4.80;;;23.40;39.80;;;;;;5039454;28;20230;-78
2023/06/14 05:02:31;;;;;;;5.43;5.13;;;23.40;39.80;;;;;;5034268;28;20538;-78
2023/06/14 05:04:57;;;;;;;4.87;4.57;;;23.40;39.90;;;;;;5037015;28;20853;-78
2023/06/14 05:07:23;;;;;;;5.87;5.47;;;23.40;40.00;;;;;;5030419;28;20221;-76
2023/06/14 05:09:49;;;;;;;4.90;4.60;;;23.40;40.00;;;;;;5031994;28;20226;-78
2023/06/14 05:12:18;;;;;;;4.97;4.67;;;23.40;40.10;;;;;;5032972;28;20990;-76
2023/06/14 05:14:44;;;;;;;4.50;4.20;;;23.40;40.10;;;;;;5032924;28;20584;-80
2023/06/14 05:17:09;;;;;;;4.70;4.40;;;23.40;40.20;;;;;;5036552;28;20466;-76
2023/06/14 05:19:35;;;;;;;4.93;4.63;;;23.40;40.30;;;;;;5039927;28;20474;-74
2023/06/14 05:22:02;;;;;;;5.13;4.83;;;23.40;40.30;;;;;;5024468;28;20226;-74
2023/06/14 05:24:30;;;;;;;4.47;4.27;;;23.40;40.50;;;;;;5035910;28;20219;-74
2023/06/14 05:26:56;;;;;;;4.93;4.63;;;23.40;40.60;;;;;;5031758;28;20963;-73
2023/06/14 05:29:21;;;;;;;4.87;4.57;;;23.40;40.70;;;;;;5031104;28;20508;-73
2023/06/14 05:31:47;;;;;;;5.10;4.80;;;23.40;40.80;;;;;;5031992;28;20471;-73
2023/06/14 05:34:12;;;;;;;5.10;4.80;;;23.40;40.80;;;;;;5034923;28;20214;-73
2023/06/14 05:36:38;;;;;;;4.43;4.23;;;23.40;40.90;;;;;;5032264;28;20248;-73
2023/06/14 05:39:05;;;;;;;5.13;4.83;;;23.40;41.00;;;;;;5035013;28;20229;-72
2023/06/14 05:41:31;;;;;;;4.50;4.30;;;23.40;41.00;;;;;;5034491;28;20517;-72
2023/06/14 05:43:57;;;;;;;5.17;4.87;;;23.40;41.10;;;;;;5036994;28;20487;-72
2023/06/14 05:46:25;;;;;;;4.73;4.53;;;23.40;41.10;;;;;;5034605;28;20320;-72
2023/06/14 05:48:51;;;;;;;4.50;4.30;;;23.40;41.60;;;;;;5034573;28;20218;-72
2023/06/14 05:51:20;;;;;;;4.37;4.17;;;23.40;41.20;;;;;;5034204;28;20485;-72
2023/06/14 05:53:49;;;;;;;5.70;5.40;;;23.40;41.30;;;;;;5040142;28;20440;-72
2023/06/14 05:56:17;;;;;;;5.30;5.00;;;23.40;41.40;;;;;;5035810;28;20537;-72
2023/06/14 05:58:43;;;;;;;5.10;4.80;;;23.40;41.30;;;;;;5036135;28;20849;-72
2023/06/14 06:01:08;;;;;;;4.60;4.40;;;23.40;41.40;;;;;;5030288;28;20450;-72
2023/06/14 06:03:34;;;;;;;4.60;4.37;;;23.40;41.50;;;;;;5035061;28;20265;-72
2023/06/14 06:06:00;;;;;;;5.20;4.90;;;23.40;41.60;;;;;;5026867;28;20316;-73
2023/06/14 06:08:26;;;;;;;5.27;4.87;;;23.40;41.50;;;;;;5035410;28;20264;-72
2023/06/14 06:10:52;;;;;;;4.77;4.47;;;23.40;41.50;;;;;;5030669;28;20455;-73
2023/06/14 06:13:18;;;;;;;5.20;4.80;;;23.40;41.60;;;;;;5024689;28;20479;-73
2023/06/14 06:15:43;;;;;;;4.10;3.90;;;23.40;41.50;;;;;;5021532;28;20244;-73
2023/06/14 06:18:09;;;;;;;4.60;4.40;;;23.40;41.60;;;;;;5032130;28;20218;-73
2023/06/14 06:20:36;;;;;;;5.20;4.70;;;23.40;41.60;;;;;;5029682;28;20210;-73
2023/06/14 06:23:01;;;;;;;5.53;5.07;;;23.40;41.60;;;;;;5029178;28;21811;-72
2023/06/14 06:25:27;;;;;;;5.17;4.77;;;23.40;41.60;;;;;;5032835;28;20442;-72
2023/06/14 06:27:56;;;;;;;4.60;4.30;;;23.40;41.70;;;;;;5029113;28;20222;-72
2023/06/14 06:30:22;;;;;;;4.37;4.10;;;23.40;41.70;;;;;;5030676;28;20526;-72
2023/06/14 06:32:48;;;;;;;4.90;4.70;;;23.40;41.70;;;;;;5032454;28;20455;-72
2023/06/14 06:35:13;;;;;;;4.37;4.17;;;23.40;41.70;;;;;;5031863;28;20856;-72
2023/06/14 06:37:40;;;;;;;4.43;4.23;;;23.40;41.80;;;;;;5036707;28;20313;-72
2023/06/14 06:40:07;;;;;;;4.07;3.87;;;23.40;41.80;;;;;;5038498;28;20242;-73
2023/06/14 06:42:33;;;;;;;4.23;3.93;;;23.40;41.80;;;;;;5034502;28;22861;-72
2023/06/14 06:44:58;;;;;;;3.70;3.50;;;23.40;41.80;;;;;;5032352;28;20458;-72
2023/06/14 06:47:24;;;;;;;4.53;4.23;;;23.40;41.90;;;;;;5032233;28;20218;-72
2023/06/14 06:49:50;;;;;;;4.40;4.20;;;23.40;41.90;;;;;;5037813;28;20214;-72
2023/06/14 06:52:16;;;;;;;4.20;4.00;;;23.40;41.90;;;;;;5032295;28;21315;-72
2023/06/14 06:54:41;;;;;;;4.53;4.30;;;23.40;42.00;;;;;;5034102;28;20218;-72
2023/06/14 06:57:07;;;;;;;4.60;4.40;;;23.40;42.00;;;;;;5032641;28;20229;-72
2023/06/14 06:59:34;;;;;;;3.93;3.63;;;23.40;42.00;;;;;;5032803;28;20818;-72
2023/06/14 07:02:00;;;;;;;4.03;3.83;;;23.40;42.00;;;;;;5034299;28;20534;-72
2023/06/14 07:04:25;;;;;;;4.30;4.10;;;23.40;42.10;;;;;;5028434;28;20489;-72
2023/06/14 07:06:51;;;;;;;4.40;4.17;;;23.40;42.10;;;;;;5027412;28;20316;-72
2023/06/14 07:09:17;;;;;;;4.27;3.97;;;23.40;42.10;;;;;;5023513;28;20276;-72
2023/06/14 07:11:46;;;;;;;4.10;3.90;;;23.40;42.10;;;;;;5020132;28;20225;-72
2023/06/14 07:14:12;;;;;;;4.50;4.20;;;23.40;42.10;;;;;;5019800;28;20226;-72
2023/06/14 07:16:37;;;;;;;4.13;3.93;;;23.40;43.00;;;;;;5022590;28;20521;-71
2023/06/14 07:19:04;;;;;;;3.97;3.77;;;23.40;42.20;;;;;;5019402;28;20226;-72
2023/06/14 07:21:29;;;;;;;4.00;3.80;;;23.40;42.10;;;;;;5019864;28;20256;-72
2023/06/14 07:23:55;;;;;;;4.70;4.40;;;23.40;42.20;;;;;;5021598;28;20503;-72
2023/06/14 07:26:21;;;;;;;4.60;4.40;;;23.40;42.20;;;;;;5022978;28;20775;-72
2023/06/14 07:28:48;;;;;;;4.00;3.80;;;23.40;42.90;;;;;;5022614;28;20218;-72
2023/06/14 07:31:15;;;;;;;3.77;3.57;;;23.40;42.20;;;;;;5016193;28;20795;-72
2023/06/14 07:33:41;;;;;;;3.83;3.63;;;23.40;42.10;;;;;;5023153;28;20608;-72
2023/06/14 07:36:07;;;;;;;4.43;4.03;;;23.50;42.20;;;;;;5023747;28;20451;-72
2023/06/14 07:38:32;;;;;;;4.23;4.03;;;23.40;42.10;;;;;;5025310;28;20478;-72
2023/06/14 07:40:58;;;;;;;3.90;3.70;;;23.40;42.20;;;;;;5017217;28;20562;-73
2023/06/14 07:43:23;;;;;;;3.73;3.53;;;23.50;42.30;;;;;;5023947;28;20540;-72
2023/06/14 07:45:49;;;;;;;4.27;4.07;;;23.40;42.10;;;;;;5018632;28;20591;-72
2023/06/14 07:48:15;;;;;;;3.60;3.30;;;23.40;42.20;;;;;;5020324;28;20783;-72
2023/06/14 07:50:40;;;;;;;3.70;3.50;;;23.50;42.30;;;;;;5021764;28;20220;-72
2023/06/14 07:53:06;;;;;;;3.70;3.50;;;23.50;43.10;;;;;;5023438;28;20976;-72
2023/06/14 07:55:33;;;;;;;4.00;3.80;;;23.50;42.30;;;;;;5016417;28;20739;-70
2023/06/14 07:57:58;;;;;;;3.17;3.00;;;23.50;42.30;;;;;;5019383;28;20230;-71
2023/06/14 08:00:24;;;;;;;3.83;3.63;;;23.50;42.30;;;;;;5020327;28;20505;-71
2023/06/14 08:02:51;;;;;;;3.77;3.47;;;23.50;43.10;;;;;;5022403;28;20243;-71
2023/06/14 08:05:17;;;;;;;3.97;3.67;;;23.50;42.20;;;;;;5015627;28;20689;-71
2023/06/14 08:07:43;;;;;;;3.80;3.60;;;23.40;42.20;;;;;;5019620;28;20463;-71
2023/06/14 08:10:09;;;;;;;3.67;3.47;;;23.40;42.10;;;;;;5009689;28;20807;-70
2023/06/14 08:12:34;;;;;;;3.10;3.00;;;23.50;42.20;;;;;;5022008;28;20223;-71
2023/06/14 08:15:00;;;;;;;3.47;3.27;;;23.50;42.20;;;;;;5017243;28;20460;-71
2023/06/14 08:17:26;;;;;;;3.37;3.17;;;23.40;42.10;;;;;;5017258;28;20229;-71
2023/06/14 08:19:54;;;;;;;3.10;3.00;;;23.50;42.20;;;;;;5019928;28;20226;-71
2023/06/14 08:22:21;;;;;;;3.37;3.17;;;23.50;42.20;;;;;;5018839;28;20989;-71
2023/06/14 08:24:47;;;;;;;4.10;3.80;;;23.50;42.30;;;;;;5014188;28;21464;-71
2023/06/14 08:27:13;;;;;;;3.60;3.40;;;23.40;42.20;;;;;;5021228;28;20494;-71
2023/06/14 08:29:40;;;;;;;2.90;2.80;;;23.40;42.20;;;;;;5018410;28;20217;-70
2023/06/14 08:32:06;;;;;;;3.70;3.40;;;23.50;42.30;;;;;;5014199;28;20314;-71
2023/06/14 08:34:32;;;;;;;3.37;3.17;;;23.50;43.00;;;;;;5025732;28;20455;-71
2023/06/14 08:36:57;;;;;;;3.60;3.40;;;23.50;42.30;;;;;;5016730;28;22146;-71
2023/06/14 08:39:23;;;;;;;3.83;3.53;;;23.50;42.30;;;;;;5020828;28;20245;-71
2023/06/14 08:41:50;;;;;;;3.23;3.03;;;23.50;42.30;;;;;;5020869;28;20211;-71
2023/06/14 08:44:16;;;;;;;3.37;3.17;;;23.50;42.30;;;;;;5015148;28;20222;-71
2023/06/14 08:46:43;;;;;;;3.33;3.13;;;23.50;42.30;;;;;;5016330;28;20468;-71
2023/06/14 08:49:11;;;;;;;3.20;3.00;;;23.50;42.30;;;;;;5012833;28;20470;-70
2023/06/14 08:51:37;;;;;;;3.33;3.13;;;23.50;42.30;;;;;;5019404;28;20530;-71
2023/06/14 08:54:03;;;;;;;3.07;2.87;;;23.50;42.30;;;;;;5019475;28;21372;-71
2023/06/14 08:56:30;;;;;;;3.37;3.17;;;23.50;42.30;;;;;;5016028;28;20222;-71
2023/06/14 08:59:00;;;;;;;2.93;2.83;;;23.50;42.30;;;;;;5015814;28;20646;-71
2023/06/14 09:01:26;;;;;;;2.67;2.57;;;23.50;42.30;;;;;;5014414;28;20516;-71
2023/06/14 09:03:54;;;;;;;3.00;2.80;;;23.50;42.30;;;;;;5013954;28;20558;-71
2023/06/14 09:06:22;;;;;;;2.53;2.43;;;23.50;42.30;;;;;;5011696;28;20479;-71
2023/06/14 09:08:48;;;;;;;2.60;2.50;;;23.50;42.30;;;;;;5016574;28;20468;-71
2023/06/14 09:11:16;;;;;;;3.07;2.77;;;23.50;42.30;;;;;;5007148;28;20879;-71
2023/06/14 09:13:42;;;;;;;3.00;2.80;;;23.50;42.30;;;;;;5017514;28;20899;-71
2023/06/14 09:16:08;;;;;;;3.30;3.10;;;23.50;42.30;;;;;;5012481;28;20476;-70
2023/06/14 09:18:47;;;;;;;2.90;2.80;;;23.50;42.30;;;;;;5019763;28;20831;-71
2023/06/14 09:21:13;;;;;;;3.13;2.97;;;23.50;42.30;;;;;;5019300;28;20222;-71
2023/06/14 09:23:41;;;;;;;2.30;2.20;;;23.50;42.30;;;;;;5018868;28;20462;-70
2023/06/14 09:26:10;;;;;;;2.67;2.57;;;23.50;42.30;;;;;;5019952;28;20542;-71
2023/06/14 09:28:41;;;;;;;3.30;3.10;;;23.50;42.30;;;;;;5022005;28;20451;-71
2023/06/14 09:31:08;;;;;;;2.40;2.30;;;23.50;42.30;;;;;;5022789;28;20476;-71
2023/06/14 09:33:34;;;;;;;2.90;2.70;;;23.50;42.30;;;;;;5023082;28;20570;-71
2023/06/14 09:35:59;;;;;;;2.23;2.13;;;23.50;42.30;;;;;;5022584;28;21852;-71
2023/06/14 09:38:26;;;;;;;2.40;2.20;;;23.50;42.30;;;;;;5018505;28;20477;-71
2023/06/14 09:40:51;;;;;;;2.93;2.73;;;23.50;42.30;;;;;;5016160;28;20225;-71
2023/06/14 09:43:18;;;;;;;2.17;2.07;;;23.50;42.30;;;;;;5020465;28;21002;-71
2023/06/14 09:45:45;;;;;;;2.33;2.23;;;23.50;42.30;;;;;;5016003;28;20221;-71
2023/06/14 09:48:11;;;;;;;2.27;2.17;;;23.50;42.30;;;;;;5019104;28;20535;-70
2023/06/14 09:50:37;;;;;;;2.03;1.93;;;23.50;42.30;;;;;;5020304;28;20570;-71
2023/06/14 09:53:06;;;;;;;2.27;2.17;;;23.50;42.20;;;;;;5017811;28;20454;-71
2023/06/14 09:55:37;;;;;;;2.20;2.00;;;23.50;42.30;;;;;;5010321;28;20225;-71
2023/06/14 09:58:06;;;;;;;2.43;2.33;;;23.50;42.20;;;;;;5019028;28;20886;-71
2023/06/14 10:00:33;;;;;;;2.77;2.60;;;23.50;42.20;;;;;;5018565;28;21366;-71
2023/06/14 10:03:08;;;;;;;2.20;2.10;;;23.50;42.10;;;;;;5020471;28;20455;-71
2023/06/14 10:05:36;;;;;;;2.27;2.17;;;23.50;42.10;;;;;;5019314;28;22076;-71
2023/06/14 10:08:16;;;;;;;2.10;2.00;;;23.50;42.10;;;;;;5017220;28;20976;-71
2023/06/14 10:10:42;;;;;;;1.80;1.70;;;23.50;42.00;;;;;;5016647;28;20550;-71
2023/06/14 10:13:08;;;;;;;2.10;2.00;;;23.50;42.00;;;;;;5016786;28;20463;-71
2023/06/14 10:16:10;;;;;;;2.00;1.90;;;23.50;42.10;;;;;;5016463;28;20454;-71
2023/06/14 10:18:54;;;;;;;1.83;1.73;;;23.50;41.90;;;;;;5011165;28;20229;-72
2023/06/14 10:21:32;;;;;;;2.20;2.00;;;23.50;41.90;;;;;;5012515;28;20463;-71
2023/06/14 10:24:01;;;;;;;2.10;2.00;;;23.50;41.90;;;;;;5015015;28;20449;-71
2023/06/14 10:26:26;;;;;;;2.00;1.90;;;23.50;41.90;;;;;;5016909;28;20462;-71
2023/06/14 10:29:01;;;;;;;2.00;1.80;;;23.50;41.90;;;;;;5021718;28;20511;-71
2023/06/14 10:31:46;;;;;;;2.00;1.90;;;23.50;41.80;;;;;;5015013;28;21071;-71
2023/06/14 10:34:28;;;;;;;1.80;1.70;;;23.50;41.80;;;;;;5019703;28;20978;-71
2023/06/14 10:37:11;;;;;;;2.27;2.10;;;23.60;41.80;;;;;;5019565;28;20463;-71
2023/06/14 10:39:42;;;;;;;1.80;1.70;;;23.60;41.80;;;;;;5019008;28;21867;-72
2023/06/14 10:42:08;;;;;;;1.93;1.83;;;23.50;41.80;;;;;;5014289;28;20977;-71
2023/06/14 10:44:40;;;;;;;2.07;1.90;;;23.60;41.80;;;;;;5014957;28;20471;-71
2023/06/14 10:47:25;;;;;;;2.00;1.90;;;23.60;41.80;;;;;;5020441;28;20954;-71
2023/06/14 10:49:53;;;;;;;1.83;1.73;;;23.60;41.70;;;;;;5035831;28;21002;-71
2023/06/14 10:52:23;;;;;;;1.90;1.80;;;23.60;42.50;;;;;;5015830;28;20466;-71
2023/06/14 10:55:01;;;;;;;1.53;1.43;;;23.60;41.70;;;;;;5020802;28;20492;-71
2023/06/14 10:57:27;;;;;;;1.80;1.70;;;23.50;41.60;;;;;;5023166;28;21567;-71
2023/06/14 10:59:54;;;;;;;1.80;1.70;;;23.50;41.70;;;;;;5026369;28;20484;-71
2023/06/14 11:02:19;;;;;;;3.07;1.80;;;23.60;41.70;;;;;;5016821;28;21234;-71
2023/06/14 11:04:51;;;;;;;2.00;1.90;;;23.50;41.50;;;;;;5020038;28;20463;-71
2023/06/14 11:07:56;;;;;;;1.80;1.70;;;23.50;41.50;;;;;;5021147;28;20607;-72
2023/06/14 11:10:40;;;;;;;1.73;1.63;;;23.60;41.60;;;;;;4992698;28;20458;-72
2023/06/14 11:13:07;;;;;;;1.83;1.73;;;23.50;41.50;;;;;;5020606;28;20985;-73
2023/06/14 11:15:34;;;;;;;1.70;1.60;;;23.60;41.60;;;;;;5021870;28;20856;-72
2023/06/14 11:18:02;;;;;;;1.97;1.87;;;23.60;41.60;;;;;;5022799;28;20476;-72
2023/06/14 11:20:31;;;;;;;1.70;1.60;;;23.60;41.50;;;;;;5021609;28;20562;-72
2023/06/14 11:22:57;;;;;;;1.80;1.70;;;23.60;41.50;;;;;;5023936;28;21032;-72
2023/06/14 11:25:23;;;;;;;1.83;1.73;;;23.60;41.50;;;;;;5026073;28;20471;-72
2023/06/14 11:27:52;;;;;;;2.10;2.00;;;23.60;41.50;;;;;;5025848;28;20278;-72
2023/06/14 11:30:18;;;;;;;1.50;1.40;;;23.60;41.50;;;;;;5025320;28;20219;-72
2023/06/14 11:32:51;;;;;;;1.70;1.60;;;23.60;41.40;;;;;;5025101;28;20496;-72
2023/06/14 11:35:18;;;;;;;1.60;1.50;;;23.60;41.40;;;;;;5025555;28;20268;-71
2023/06/14 11:37:44;;;;;;;1.90;1.80;;;23.60;41.40;;;;;;5024914;28;20460;-71
2023/06/14 11:40:11;;;;;;;1.83;1.73;;;23.60;41.40;;;;;;5024525;28;21051;-71
2023/06/14 11:42:41;;;;;;;1.60;1.50;;;23.60;41.30;;;;;;5027930;28;20233;-72
2023/06/14 11:45:11;;;;;;;1.83;1.73;;;23.60;41.40;;;;;;5026694;28;21100;-72
2023/06/14 11:47:38;;;;;;;1.53;1.43;;;23.60;41.30;;;;;;5028837;28;20526;-72
2023/06/14 11:50:06;;;;;;;1.70;1.60;;;23.60;41.30;;;;;;5026366;28;20460;-72
2023/06/14 11:52:32;;;;;;;1.73;1.63;;;23.60;41.30;;;;;;5025523;28;20546;-72
2023/06/14 11:54:58;;;;;;;1.50;1.40;;;23.60;41.30;;;;;;5027998;28;20462;-72
2023/06/14 11:57:25;;;;;;;1.70;1.60;;;23.60;41.20;;;;;;5024842;28;20487;-72
2023/06/14 11:59:51;;;;;;;1.70;1.60;;;23.60;41.20;;;;;;5022351;28;20476;-72
2023/06/14 12:02:18;;;;;;;1.73;1.63;;;23.60;41.20;;;;;;5024985;28;20468;-73
2023/06/14 12:04:46;;;;;;;2.00;1.90;;;23.60;41.10;;;;;;5024494;28;20468;-73
2023/06/14 12:07:20;;;;;;;1.90;1.80;;;23.60;41.10;;;;;;5022678;28;20540;-69
2023/06/14 12:10:07;;;;;;;1.60;1.50;;;23.70;41.10;;;;;;5024796;28;20528;-73
2023/06/14 12:12:36;;;;;;;1.60;1.50;;;23.60;41.00;;;;;;5028299;28;20439;-73
2023/06/14 12:15:05;;;;;;;1.90;1.80;;;23.60;41.10;;;;;;5026040;28;20462;-72
2023/06/14 12:17:35;;;;;;;1.70;1.60;;;23.70;41.10;;;;;;5022866;28;20466;-73
2023/06/14 12:20:11;;;;;;;1.80;1.70;;;23.60;41.10;;;;;;5024173;28;20823;-73
2023/06/14 12:22:37;;;;;;;1.70;1.60;;;23.60;41.00;;;;;;5023561;28;20528;-74
2023/06/14 12:25:04;;;;;;;1.60;1.50;;;23.70;41.20;;;;;;5020792;28;21086;-73
2023/06/14 12:27:29;;;;;;;1.70;1.60;;;23.60;41.10;;;;;;5024705;28;20482;-73
2023/06/14 12:30:03;;;;;;;1.87;1.57;;;23.70;41.10;;;;;;5026389;28;20567;-73
2023/06/14 12:32:29;;;;;;;1.40;1.30;;;23.70;41.10;;;;;;5023527;28;20273;-73
2023/06/14 12:34:55;;;;;;;2.07;1.97;;;23.70;41.10;;;;;;5027034;28;20470;-73
2023/06/14 12:37:21;;;;;;;1.73;1.63;;;23.70;41.10;;;;;;5021279;28;20466;-73
2023/06/14 12:39:47;;;;;;;1.80;1.70;;;23.70;41.20;;;;;;5025937;28;20241;-73
2023/06/14 12:42:14;;;;;;;1.60;1.50;;;23.70;41.10;;;;;;5023930;28;20214;-73
2023/06/14 12:44:40;;;;;;;1.70;1.60;;;23.70;41.10;;;;;;5020973;28;20561;-72
2023/06/14 12:47:07;;;;;;;1.50;1.40;;;23.70;41.10;;;;;;5023560;28;20478;-74
2023/06/14 12:49:33;;;;;;;1.63;1.50;;;23.70;41.20;;;;;;5023509;28;20459;-73